sensor_id;sensor_type;location;lat;lon;timestamp;temperature;humidity
3051;DHT22;1535;51.098;6.414;2023-06-10T00:02:05;18.60;99.90
3051;DHT22;1535;51.098;6.414;2023-06-10T00:04:33;18.50;99.90
3051;DHT22;1535;51.098;6.414;2023-06-10T00:06:59;18.50;99.90
3051;DHT22;1535;51.098;6.414;2023-06-10T00:09:28;18.60;99.90
3051;DHT22;1535;51.098;6.414;2023-06-10T00:11:54;18.60;99.90
3051;DHT22;1535;51.098;6.414;2023-06-10T00:14:21;18.60;99.90
3051;DHT22;1535;51.098;6.414;2023-06-10T00:16:48;18.60;99.90
3051;DHT22;1535;51.098;6.414;2023-06-10T00:19:15;18.50;99.90
3051;DHT22;1535;51.098;6.414;2023-06-10T00:21:44;18.50;99.90
3051;DHT22;1535;51.098;6.414;2023-06-10T00:24:11;18.60;99.90
3051;DHT22;1535;51.098;6.414;2023-06-10T00:26:39;18.70;99.90
3051;DHT22;1535;51.098;6.414;2023-06-10T00:29:07;18.70;99.90
3051;DHT22;1535;51.098;6.414;2023-06-10T00:31:34;18.80;99.90
3051;DHT22;1535;51.098;6.414;2023-06-10T00:34:02;18.70;99.90
3051;DHT22;1535;51.098;6.414;2023-06-10T00:36:29;18.60;99.90
3051;DHT22;1535;51.098;6.414;2023-06-10T00:38:56;18.50;99.90
3051;DHT22;1535;51.098;6.414;2023-06-10T00:41:23;18.50;99.90
3051;DHT22;1535;51.098;6.414;2023-06-10T00:43:53;18.40;99.90
3051;DHT22;1535;51.098;6.414;2023-06-10T00:46:21;18.40;99.90
3051;DHT22;1535;51.098;6.414;2023-06-10T00:48:49;18.40;99.90
3051;DHT22;1535;51.098;6.414;2023-06-10T00:51:16;18.40;99.90
3051;DHT22;1535;51.098;6.414;2023-06-10T00:53:43;18.40;99.90
3051;DHT22;1535;51.098;6.414;2023-06-10T00:56:13;18.30;99.90
3051;DHT22;1535;51.098;6.414;2023-06-10T00:58:40;18.20;99.90
3051;DHT22;1535;51.098;6.414;2023-06-10T01:01:09;18.20;99.90
3051;DHT22;1535;51.098;6.414;2023-06-10T01:03:38;18.10;99.90
3051;DHT22;1535;51.098;6.414;2023-06-10T01:06:11;18.10;99.90
3051;DHT22;1535;51.098;6.414;2023-06-10T01:08:49;18.10;99.90
3051;DHT22;1535;51.098;6.414;2023-06-10T01:11:22;18.20;99.90
3051;DHT22;1535;51.098;6.414;2023-06-10T01:13:50;18.10;99.90
3051;DHT22;1535;51.098;6.414;2023-06-10T01:16:20;18.10;99.90
3051;DHT22;1535;51.098;6.414;2023-06-10T01:18:46;18.00;99.90
3051;DHT22;1535;51.098;6.414;2023-06-10T01:21:19;18.00;99.90
3051;DHT22;1535;51.098;6.414;2023-06-10T01:23:47;18.00;99.90
3051;DHT22;1535;51.098;6.414;2023-06-10T01:26:15;17.90;99.90
3051;DHT22;1535;51.098;6.414;2023-06-10T01:28:47;17.90;99.90
3051;DHT22;1535;51.098;6.414;2023-06-10T01:31:17;17.90;99.90
3051;DHT22;1535;51.098;6.414;2023-06-10T01:33:51;17.80;99.90
3051;DHT22;1535;51.098;6.414;2023-06-10T01:36:22;17.70;99.90
3051;DHT22;1535;51.098;6.414;2023-06-10T01:38:50;17.70;99.90
3051;DHT22;1535;51.098;6.414;2023-06-10T01:41:19;17.70;99.90
3051;DHT22;1535;51.098;6.414;2023-06-10T01:43:48;17.60;99.90
3051;DHT22;1535;51.098;6.414;2023-06-10T01:46:15;17.60;99.90
3051;DHT22;1535;51.098;6.414;2023-06-10T01:48:45;17.60;99.90
3051;DHT22;1535;51.098;6.414;2023-06-10T01:51:11;17.60;99.90
3051;DHT22;1535;51.098;6.414;2023-06-10T01:53:40;17.60;99.90
3051;DHT22;1535;51.098;6.414;2023-06-10T01:56:06;17.60;99.90
3051;DHT22;1535;51.098;6.414;2023-06-10T01:58:34;17.50;99.90
3051;DHT22;1535;51.098;6.414;2023-06-10T02:01:01;17.60;99.90
3051;DHT22;1535;51.098;6.414;2023-06-10T02:03:28;17.60;99.90
3051;DHT22;1535;51.098;6.414;2023-06-10T02:05:55;17.60;99.90
3051;DHT22;1535;51.098;6.414;2023-06-10T02:08:22;17.60;99.90
3051;DHT22;1535;51.098;6.414;2023-06-10T02:10:50;17.60;99.90
3051;DHT22;1535;51.098;6.414;2023-06-10T02:13:17;17.50;99.90
3051;DHT22;1535;51.098;6.414;2023-06-10T02:15:44;17.50;99.90
3051;DHT22;1535;51.098;6.414;2023-06-10T02:18:11;17.50;99.90
3051;DHT22;1535;51.098;6.414;2023-06-10T02:20:39;17.40;99.90
3051;DHT22;1535;51.098;6.414;2023-06-10T02:23:05;17.30;99.90
3051;DHT22;1535;51.098;6.414;2023-06-10T02:25:32;17.30;99.90
3051;DHT22;1535;51.098;6.414;2023-06-10T02:28:00;17.40;99.90
3051;DHT22;1535;51.098;6.414;2023-06-10T02:30:28;17.30;99.90
3051;DHT22;1535;51.098;6.414;2023-06-10T02:32:55;17.40;99.90
3051;DHT22;1535;51.098;6.414;2023-06-10T02:35:23;17.50;99.90
3051;DHT22;1535;51.098;6.414;2023-06-10T02:37:51;17.50;99.90
3051;DHT22;1535;51.098;6.414;2023-06-10T02:40:19;17.50;99.90
3051;DHT22;1535;51.098;6.414;2023-06-10T02:42:47;17.50;99.90
3051;DHT22;1535;51.098;6.414;2023-06-10T02:45:16;17.40;99.90
3051;DHT22;1535;51.098;6.414;2023-06-10T02:47:44;17.30;99.90
3051;DHT22;1535;51.098;6.414;2023-06-10T02:50:11;17.30;99.90
3051;DHT22;1535;51.098;6.414;2023-06-10T02:52:38;17.30;99.90
3051;DHT22;1535;51.098;6.414;2023-06-10T02:55:05;17.30;99.90
3051;DHT22;1535;51.098;6.414;2023-06-10T02:57:33;17.30;99.90
3051;DHT22;1535;51.098;6.414;2023-06-10T03:00:01;17.40;99.90
3051;DHT22;1535;51.098;6.414;2023-06-10T03:02:36;17.40;99.90
3051;DHT22;1535;51.098;6.414;2023-06-10T03:05:05;17.50;99.90
3051;DHT22;1535;51.098;6.414;2023-06-10T03:07:35;17.40;99.90
3051;DHT22;1535;51.098;6.414;2023-06-10T03:10:04;17.40;99.90
3051;DHT22;1535;51.098;6.414;2023-06-10T03:12:30;17.40;99.90
3051;DHT22;1535;51.098;6.414;2023-06-10T03:14:57;17.30;99.90
3051;DHT22;1535;51.098;6.414;2023-06-10T03:17:24;17.30;99.90
3051;DHT22;1535;51.098;6.414;2023-06-10T03:19:52;17.30;99.90
3051;DHT22;1535;51.098;6.414;2023-06-10T03:22:19;17.20;99.90
3051;DHT22;1535;51.098;6.414;2023-06-10T03:24:46;17.20;99.90
3051;DHT22;1535;51.098;6.414;2023-06-10T03:27:15;17.20;99.90
3051;DHT22;1535;51.098;6.414;2023-06-10T03:29:42;17.20;99.90
3051;DHT22;1535;51.098;6.414;2023-06-10T03:32:11;17.20;99.90
3051;DHT22;1535;51.098;6.414;2023-06-10T03:34:40;17.20;99.90
3051;DHT22;1535;51.098;6.414;2023-06-10T03:37:09;17.20;99.90
3051;DHT22;1535;51.098;6.414;2023-06-10T03:39:35;17.20;99.90
3051;DHT22;1535;51.098;6.414;2023-06-10T03:42:03;17.20;99.90
3051;DHT22;1535;51.098;6.414;2023-06-10T03:44:30;17.30;99.90
3051;DHT22;1535;51.098;6.414;2023-06-10T03:46:57;17.20;99.90
3051;DHT22;1535;51.098;6.414;2023-06-10T03:49:25;17.20;99.90
3051;DHT22;1535;51.098;6.414;2023-06-10T03:51:54;17.20;99.90
3051;DHT22;1535;51.098;6.414;2023-06-10T03:54:22;17.30;99.90
3051;DHT22;1535;51.098;6.414;2023-06-10T03:56:50;17.20;99.90
3051;DHT22;1535;51.098;6.414;2023-06-10T03:59:18;17.20;99.90
3051;DHT22;1535;51.098;6.414;2023-06-10T04:01:45;17.20;99.90
3051;DHT22;1535;51.098;6.414;2023-06-10T04:04:14;17.10;99.90
3051;DHT22;1535;51.098;6.414;2023-06-10T04:06:41;17.10;99.90
3051;DHT22;1535;51.098;6.414;2023-06-10T04:09:09;17.10;99.90
3051;DHT22;1535;51.098;6.414;2023-06-10T04:11:37;17.10;99.90
3051;DHT22;1535;51.098;6.414;2023-06-10T04:14:04;17.20;99.90
3051;DHT22;1535;51.098;6.414;2023-06-10T04:16:30;17.30;99.90
3051;DHT22;1535;51.098;6.414;2023-06-10T04:18:58;17.30;99.90
3051;DHT22;1535;51.098;6.414;2023-06-10T04:21:25;17.30;99.90
3051;DHT22;1535;51.098;6.414;2023-06-10T04:23:53;17.40;99.90
3051;DHT22;1535;51.098;6.414;2023-06-10T04:26:19;17.50;99.90
3051;DHT22;1535;51.098;6.414;2023-06-10T04:28:48;17.50;99.90
3051;DHT22;1535;51.098;6.414;2023-06-10T04:31:15;17.60;99.90
3051;DHT22;1535;51.098;6.414;2023-06-10T04:33:42;17.70;99.90
3051;DHT22;1535;51.098;6.414;2023-06-10T04:36:09;17.80;99.90
3051;DHT22;1535;51.098;6.414;2023-06-10T04:38:36;17.90;99.90
3051;DHT22;1535;51.098;6.414;2023-06-10T04:41:02;18.00;99.90
3051;DHT22;1535;51.098;6.414;2023-06-10T04:43:29;18.10;99.90
3051;DHT22;1535;51.098;6.414;2023-06-10T04:45:57;18.10;99.90
3051;DHT22;1535;51.098;6.414;2023-06-10T04:48:25;18.20;99.90
3051;DHT22;1535;51.098;6.414;2023-06-10T04:50:52;18.30;99.90
3051;DHT22;1535;51.098;6.414;2023-06-10T04:53:19;18.40;99.90
3051;DHT22;1535;51.098;6.414;2023-06-10T04:55:46;18.50;99.90
3051;DHT22;1535;51.098;6.414;2023-06-10T04:58:14;18.60;99.90
3051;DHT22;1535;51.098;6.414;2023-06-10T05:00:42;18.60;99.90
3051;DHT22;1535;51.098;6.414;2023-06-10T05:03:11;18.80;99.90
3051;DHT22;1535;51.098;6.414;2023-06-10T05:05:39;18.90;99.90
3051;DHT22;1535;51.098;6.414;2023-06-10T05:08:06;19.10;99.90
3051;DHT22;1535;51.098;6.414;2023-06-10T05:10:34;19.10;99.90
3051;DHT22;1535;51.098;6.414;2023-06-10T05:13:00;19.40;99.90
3051;DHT22;1535;51.098;6.414;2023-06-10T05:15:29;19.50;99.90
3051;DHT22;1535;51.098;6.414;2023-06-10T05:17:57;19.60;99.90
3051;DHT22;1535;51.098;6.414;2023-06-10T05:20:26;19.70;99.90
3051;DHT22;1535;51.098;6.414;2023-06-10T05:22:54;19.80;99.90
3051;DHT22;1535;51.098;6.414;2023-06-10T05:25:21;20.00;99.90
3051;DHT22;1535;51.098;6.414;2023-06-10T05:27:48;20.00;99.90
3051;DHT22;1535;51.098;6.414;2023-06-10T05:30:15;20.10;99.90
3051;DHT22;1535;51.098;6.414;2023-06-10T05:32:45;20.10;99.90
3051;DHT22;1535;51.098;6.414;2023-06-10T05:35:13;20.20;99.90
3051;DHT22;1535;51.098;6.414;2023-06-10T05:37:43;20.30;99.90
3051;DHT22;1535;51.098;6.414;2023-06-10T05:40:10;20.40;99.90
3051;DHT22;1535;51.098;6.414;2023-06-10T05:42:37;20.50;99.90
3051;DHT22;1535;51.098;6.414;2023-06-10T05:45:06;20.60;99.90
3051;DHT22;1535;51.098;6.414;2023-06-10T05:47:33;20.60;99.90
3051;DHT22;1535;51.098;6.414;2023-06-10T05:50:00;20.70;99.90
3051;DHT22;1535;51.098;6.414;2023-06-10T05:52:28;20.70;99.90
3051;DHT22;1535;51.098;6.414;2023-06-10T05:54:56;20.80;99.90
3051;DHT22;1535;51.098;6.414;2023-06-10T05:57:25;20.80;99.90
3051;DHT22;1535;51.098;6.414;2023-06-10T05:59:52;20.90;99.90
3051;DHT22;1535;51.098;6.414;2023-06-10T06:02:19;21.10;99.90
3051;DHT22;1535;51.098;6.414;2023-06-10T06:04:46;21.20;99.90
3051;DHT22;1535;51.098;6.414;2023-06-10T06:07:12;21.30;99.90
3051;DHT22;1535;51.098;6.414;2023-06-10T06:09:39;21.50;99.90
3051;DHT22;1535;51.098;6.414;2023-06-10T06:12:09;21.60;99.90
3051;DHT22;1535;51.098;6.414;2023-06-10T06:14:38;21.70;99.90
3051;DHT22;1535;51.098;6.414;2023-06-10T06:17:06;21.80;99.90
3051;DHT22;1535;51.098;6.414;2023-06-10T06:19:33;22.00;99.90
3051;DHT22;1535;51.098;6.414;2023-06-10T06:22:00;22.20;99.90
3051;DHT22;1535;51.098;6.414;2023-06-10T06:24:26;22.10;99.90
3051;DHT22;1535;51.098;6.414;2023-06-10T06:26:53;22.10;99.90
3051;DHT22;1535;51.098;6.414;2023-06-10T06:29:21;22.20;99.90
3051;DHT22;1535;51.098;6.414;2023-06-10T06:31:48;22.30;99.90
3051;DHT22;1535;51.098;6.414;2023-06-10T06:34:15;22.40;99.90
3051;DHT22;1535;51.098;6.414;2023-06-10T06:36:42;22.60;99.90
3051;DHT22;1535;51.098;6.414;2023-06-10T06:39:09;22.60;99.90
3051;DHT22;1535;51.098;6.414;2023-06-10T06:41:36;22.60;99.90
3051;DHT22;1535;51.098;6.414;2023-06-10T06:44:03;22.60;99.90
3051;DHT22;1535;51.098;6.414;2023-06-10T06:46:31;22.70;99.90
3051;DHT22;1535;51.098;6.414;2023-06-10T06:48:59;22.80;99.90
3051;DHT22;1535;51.098;6.414;2023-06-10T06:51:25;23.00;99.90
3051;DHT22;1535;51.098;6.414;2023-06-10T06:53:52;23.10;99.90
3051;DHT22;1535;51.098;6.414;2023-06-10T06:56:24;23.20;99.90
3051;DHT22;1535;51.098;6.414;2023-06-10T06:58:51;23.10;99.90
3051;DHT22;1535;51.098;6.414;2023-06-10T07:01:19;23.30;99.90
3051;DHT22;1535;51.098;6.414;2023-06-10T07:03:49;23.30;99.90
3051;DHT22;1535;51.098;6.414;2023-06-10T07:06:16;23.60;99.90
3051;DHT22;1535;51.098;6.414;2023-06-10T07:08:43;23.60;99.90
3051;DHT22;1535;51.098;6.414;2023-06-10T07:11:11;23.70;99.90
3051;DHT22;1535;51.098;6.414;2023-06-10T07:13:38;23.90;99.90
3051;DHT22;1535;51.098;6.414;2023-06-10T07:16:04;24.20;99.90
3051;DHT22;1535;51.098;6.414;2023-06-10T07:18:32;24.40;99.90
3051;DHT22;1535;51.098;6.414;2023-06-10T07:21:01;24.40;99.90
3051;DHT22;1535;51.098;6.414;2023-06-10T07:23:28;24.50;99.90
3051;DHT22;1535;51.098;6.414;2023-06-10T07:25:56;24.50;99.90
3051;DHT22;1535;51.098;6.414;2023-06-10T07:28:23;24.60;99.90
3051;DHT22;1535;51.098;6.414;2023-06-10T07:30:51;25.00;99.90
3051;DHT22;1535;51.098;6.414;2023-06-10T07:33:19;25.20;99.90
3051;DHT22;1535;51.098;6.414;2023-06-10T07:35:45;25.50;99.90
3051;DHT22;1535;51.098;6.414;2023-06-10T07:38:14;25.60;99.90
3051;DHT22;1535;51.098;6.414;2023-06-10T07:40:41;25.60;99.90
3051;DHT22;1535;51.098;6.414;2023-06-10T07:43:09;25.70;99.90
3051;DHT22;1535;51.098;6.414;2023-06-10T07:45:37;25.70;99.90
3051;DHT22;1535;51.098;6.414;2023-06-10T07:48:05;25.90;99.90
3051;DHT22;1535;51.098;6.414;2023-06-10T07:50:32;26.00;99.90
3051;DHT22;1535;51.098;6.414;2023-06-10T07:53:00;26.10;99.90
3051;DHT22;1535;51.098;6.414;2023-06-10T07:55:29;26.30;99.90
3051;DHT22;1535;51.098;6.414;2023-06-10T07:57:56;26.50;99.90
3051;DHT22;1535;51.098;6.414;2023-06-10T08:00:23;26.70;99.90
3051;DHT22;1535;51.098;6.414;2023-06-10T08:02:52;27.20;99.90
3051;DHT22;1535;51.098;6.414;2023-06-10T08:05:19;27.70;99.90
3051;DHT22;1535;51.098;6.414;2023-06-10T08:07:46;28.30;99.90
3051;DHT22;1535;51.098;6.414;2023-06-10T08:10:13;28.90;99.90
3051;DHT22;1535;51.098;6.414;2023-06-10T08:12:42;29.20;99.90
3051;DHT22;1535;51.098;6.414;2023-06-10T08:15:10;29.80;99.90
3051;DHT22;1535;51.098;6.414;2023-06-10T08:17:37;30.40;99.90
3051;DHT22;1535;51.098;6.414;2023-06-10T08:20:06;30.60;99.90
3051;DHT22;1535;51.098;6.414;2023-06-10T08:22:33;30.70;99.90
3051;DHT22;1535;51.098;6.414;2023-06-10T08:25:00;30.00;99.90
3051;DHT22;1535;51.098;6.414;2023-06-10T08:27:27;30.30;98.70
3051;DHT22;1535;51.098;6.414;2023-06-10T08:29:55;30.70;98.80
3051;DHT22;1535;51.098;6.414;2023-06-10T08:32:22;30.90;96.80
3051;DHT22;1535;51.098;6.414;2023-06-10T08:34:50;31.60;95.70
3051;DHT22;1535;51.098;6.414;2023-06-10T08:37:17;32.50;94.30
3051;DHT22;1535;51.098;6.414;2023-06-10T08:39:43;32.40;92.00
3051;DHT22;1535;51.098;6.414;2023-06-10T08:42:19;32.20;91.30
3051;DHT22;1535;51.098;6.414;2023-06-10T08:44:51;32.30;89.10
3051;DHT22;1535;51.098;6.414;2023-06-10T08:47:23;32.00;89.50
3051;DHT22;1535;51.098;6.414;2023-06-10T08:49:51;31.60;87.60
3051;DHT22;1535;51.098;6.414;2023-06-10T08:52:20;31.60;87.30
3051;DHT22;1535;51.098;6.414;2023-06-10T08:54:50;31.70;86.00
3051;DHT22;1535;51.098;6.414;2023-06-10T08:57:19;31.70;86.30
3051;DHT22;1535;51.098;6.414;2023-06-10T08:59:47;32.00;86.20
3051;DHT22;1535;51.098;6.414;2023-06-10T09:02:15;32.30;84.60
3051;DHT22;1535;51.098;6.414;2023-06-10T09:04:47;32.40;85.40
3051;DHT22;1535;51.098;6.414;2023-06-10T09:07:15;32.90;86.70
3051;DHT22;1535;51.098;6.414;2023-06-10T09:09:43;33.60;84.80
3051;DHT22;1535;51.098;6.414;2023-06-10T09:12:10;32.90;84.40
3051;DHT22;1535;51.098;6.414;2023-06-10T09:14:37;32.70;84.70
3051;DHT22;1535;51.098;6.414;2023-06-10T09:17:05;32.80;86.70
3051;DHT22;1535;51.098;6.414;2023-06-10T09:19:32;33.10;84.70
3051;DHT22;1535;51.098;6.414;2023-06-10T09:22:01;33.40;84.40
3051;DHT22;1535;51.098;6.414;2023-06-10T09:24:28;33.60;81.40
3051;DHT22;1535;51.098;6.414;2023-06-10T09:27:02;34.20;83.20
3051;DHT22;1535;51.098;6.414;2023-06-10T09:29:29;34.50;81.40
3051;DHT22;1535;51.098;6.414;2023-06-10T09:31:56;34.10;79.10
3051;DHT22;1535;51.098;6.414;2023-06-10T09:34:25;33.50;77.40
3051;DHT22;1535;51.098;6.414;2023-06-10T09:36:53;33.30;78.20
3051;DHT22;1535;51.098;6.414;2023-06-10T09:39:23;33.10;79.10
3051;DHT22;1535;51.098;6.414;2023-06-10T09:41:50;33.90;77.00
3051;DHT22;1535;51.098;6.414;2023-06-10T09:44:19;34.60;76.00
3051;DHT22;1535;51.098;6.414;2023-06-10T09:46:47;33.50;75.70
3051;DHT22;1535;51.098;6.414;2023-06-10T09:49:13;34.50;75.30
3051;DHT22;1535;51.098;6.414;2023-06-10T09:51:49;35.20;73.70
3051;DHT22;1535;51.098;6.414;2023-06-10T09:54:18;35.10;72.40
3051;DHT22;1535;51.098;6.414;2023-06-10T09:56:48;35.40;73.60
3051;DHT22;1535;51.098;6.414;2023-06-10T09:59:29;35.00;70.90
3051;DHT22;1535;51.098;6.414;2023-06-10T10:01:57;34.80;69.90
3051;DHT22;1535;51.098;6.414;2023-06-10T10:04:26;34.90;69.50
3051;DHT22;1535;51.098;6.414;2023-06-10T10:06:54;34.90;70.60
3051;DHT22;1535;51.098;6.414;2023-06-10T10:09:21;34.70;71.20
3051;DHT22;1535;51.098;6.414;2023-06-10T10:11:52;35.20;71.20
3051;DHT22;1535;51.098;6.414;2023-06-10T10:14:22;35.90;69.10
3051;DHT22;1535;51.098;6.414;2023-06-10T10:16:51;36.00;64.90
3051;DHT22;1535;51.098;6.414;2023-06-10T10:19:28;35.60;64.70
3051;DHT22;1535;51.098;6.414;2023-06-10T10:22:01;35.90;67.10
3051;DHT22;1535;51.098;6.414;2023-06-10T10:24:33;35.70;65.50
3051;DHT22;1535;51.098;6.414;2023-06-10T10:27:07;36.00;64.20
3051;DHT22;1535;51.098;6.414;2023-06-10T10:29:39;35.90;64.00
3051;DHT22;1535;51.098;6.414;2023-06-10T10:32:07;36.90;63.40
3051;DHT22;1535;51.098;6.414;2023-06-10T10:34:39;36.40;62.20
3051;DHT22;1535;51.098;6.414;2023-06-10T10:37:09;36.60;60.30
3051;DHT22;1535;51.098;6.414;2023-06-10T10:39:36;36.30;59.40
3051;DHT22;1535;51.098;6.414;2023-06-10T10:42:06;35.90;60.60
3051;DHT22;1535;51.098;6.414;2023-06-10T10:44:35;35.70;60.50
3051;DHT22;1535;51.098;6.414;2023-06-10T10:47:03;36.30;58.70
3051;DHT22;1535;51.098;6.414;2023-06-10T10:49:31;36.50;59.10
3051;DHT22;1535;51.098;6.414;2023-06-10T10:52:00;36.40;58.40
3051;DHT22;1535;51.098;6.414;2023-06-10T10:54:32;36.20;58.80
3051;DHT22;1535;51.098;6.414;2023-06-10T10:57:17;36.10;58.70
3051;DHT22;1535;51.098;6.414;2023-06-10T10:59:52;36.40;60.40
3051;DHT22;1535;51.098;6.414;2023-06-10T11:02:33;37.30;58.30
3051;DHT22;1535;51.098;6.414;2023-06-10T11:05:01;36.80;58.30
3051;DHT22;1535;51.098;6.414;2023-06-10T11:07:30;36.20;58.50
3051;DHT22;1535;51.098;6.414;2023-06-10T11:09:58;36.30;56.50
3051;DHT22;1535;51.098;6.414;2023-06-10T11:12:42;36.70;56.20
3051;DHT22;1535;51.098;6.414;2023-06-10T11:15:18;37.10;55.90
3051;DHT22;1535;51.098;6.414;2023-06-10T11:18:11;38.10;55.40
3051;DHT22;1535;51.098;6.414;2023-06-10T11:20:43;37.70;54.00
3051;DHT22;1535;51.098;6.414;2023-06-10T11:23:25;38.40;54.20
3051;DHT22;1535;51.098;6.414;2023-06-10T11:26:18;38.50;54.90
3051;DHT22;1535;51.098;6.414;2023-06-10T11:29:05;38.00;54.40
3051;DHT22;1535;51.098;6.414;2023-06-10T11:31:39;37.90;52.80
3051;DHT22;1535;51.098;6.414;2023-06-10T11:34:07;37.80;53.60
3051;DHT22;1535;51.098;6.414;2023-06-10T11:36:36;37.90;52.60
3051;DHT22;1535;51.098;6.414;2023-06-10T11:39:06;38.40;52.50
3051;DHT22;1535;51.098;6.414;2023-06-10T11:41:35;39.00;52.30
3051;DHT22;1535;51.098;6.414;2023-06-10T11:44:07;39.30;51.70
3051;DHT22;1535;51.098;6.414;2023-06-10T11:46:34;38.70;51.00
3051;DHT22;1535;51.098;6.414;2023-06-10T11:49:02;38.30;51.70
3051;DHT22;1535;51.098;6.414;2023-06-10T11:51:31;38.00;51.60
3051;DHT22;1535;51.098;6.414;2023-06-10T11:53:59;37.80;51.60
3051;DHT22;1535;51.098;6.414;2023-06-10T11:56:27;37.30;52.30
3051;DHT22;1535;51.098;6.414;2023-06-10T11:58:55;37.10;52.70
3051;DHT22;1535;51.098;6.414;2023-06-10T12:01:25;36.10;52.30
3051;DHT22;1535;51.098;6.414;2023-06-10T12:04:02;34.80;54.20
3051;DHT22;1535;51.098;6.414;2023-06-10T12:06:39;34.60;55.20
3051;DHT22;1535;51.098;6.414;2023-06-10T12:09:06;34.80;55.40
3051;DHT22;1535;51.098;6.414;2023-06-10T12:11:33;34.60;55.20
3051;DHT22;1535;51.098;6.414;2023-06-10T12:14:00;34.20;54.40
3051;DHT22;1535;51.098;6.414;2023-06-10T12:16:30;33.80;55.30
3051;DHT22;1535;51.098;6.414;2023-06-10T12:19:02;34.00;55.40
3051;DHT22;1535;51.098;6.414;2023-06-10T12:21:33;34.00;55.20
3051;DHT22;1535;51.098;6.414;2023-06-10T12:24:06;34.10;55.60
3051;DHT22;1535;51.098;6.414;2023-06-10T12:26:40;34.40;55.60
3051;DHT22;1535;51.098;6.414;2023-06-10T12:29:21;34.50;56.70
3051;DHT22;1535;51.098;6.414;2023-06-10T12:31:55;35.20;56.40
3051;DHT22;1535;51.098;6.414;2023-06-10T12:34:29;36.20;55.80
3051;DHT22;1535;51.098;6.414;2023-06-10T12:36:56;36.80;54.90
3051;DHT22;1535;51.098;6.414;2023-06-10T12:39:23;37.00;54.10
3051;DHT22;1535;51.098;6.414;2023-06-10T12:41:51;37.00;53.80
3051;DHT22;1535;51.098;6.414;2023-06-10T12:44:18;36.50;53.20
3051;DHT22;1535;51.098;6.414;2023-06-10T12:46:55;35.70;54.00
3051;DHT22;1535;51.098;6.414;2023-06-10T12:49:22;35.80;53.00
3051;DHT22;1535;51.098;6.414;2023-06-10T12:51:49;36.30;52.90
3051;DHT22;1535;51.098;6.414;2023-06-10T12:54:15;37.00;53.40
3051;DHT22;1535;51.098;6.414;2023-06-10T12:56:42;37.70;53.20
3051;DHT22;1535;51.098;6.414;2023-06-10T12:59:09;38.90;53.10
3051;DHT22;1535;51.098;6.414;2023-06-10T13:01:37;40.20;50.20
3051;DHT22;1535;51.098;6.414;2023-06-10T13:04:06;39.70;48.30
3051;DHT22;1535;51.098;6.414;2023-06-10T13:06:34;40.00;47.60
3051;DHT22;1535;51.098;6.414;2023-06-10T13:09:06;39.50;47.40
3051;DHT22;1535;51.098;6.414;2023-06-10T13:11:36;39.30;48.50
3051;DHT22;1535;51.098;6.414;2023-06-10T13:14:03;39.80;48.30
3051;DHT22;1535;51.098;6.414;2023-06-10T13:16:31;39.30;48.60
3051;DHT22;1535;51.098;6.414;2023-06-10T13:18:59;38.90;49.10
3051;DHT22;1535;51.098;6.414;2023-06-10T13:21:28;38.50;49.90
3051;DHT22;1535;51.098;6.414;2023-06-10T13:23:54;37.80;50.50
3051;DHT22;1535;51.098;6.414;2023-06-10T13:26:22;36.60;50.30
3051;DHT22;1535;51.098;6.414;2023-06-10T13:28:49;35.20;51.30
3051;DHT22;1535;51.098;6.414;2023-06-10T13:31:15;34.40;53.00
3051;DHT22;1535;51.098;6.414;2023-06-10T13:33:43;33.90;53.80
3051;DHT22;1535;51.098;6.414;2023-06-10T13:36:10;33.20;54.90
3051;DHT22;1535;51.098;6.414;2023-06-10T13:38:39;33.10;56.10
3051;DHT22;1535;51.098;6.414;2023-06-10T13:41:06;33.60;55.10
3051;DHT22;1535;51.098;6.414;2023-06-10T13:43:33;34.60;53.90
3051;DHT22;1535;51.098;6.414;2023-06-10T13:45:59;35.80;52.70
3051;DHT22;1535;51.098;6.414;2023-06-10T13:48:26;36.40;51.80
3051;DHT22;1535;51.098;6.414;2023-06-10T13:50:53;36.40;51.40
3051;DHT22;1535;51.098;6.414;2023-06-10T13:53:20;36.10;51.10
3051;DHT22;1535;51.098;6.414;2023-06-10T13:55:48;36.10;51.90
3051;DHT22;1535;51.098;6.414;2023-06-10T13:58:15;36.60;50.40
3051;DHT22;1535;51.098;6.414;2023-06-10T14:00:42;36.10;51.20
3051;DHT22;1535;51.098;6.414;2023-06-10T14:03:09;36.10;51.60
3051;DHT22;1535;51.098;6.414;2023-06-10T14:05:36;35.90;51.90
3051;DHT22;1535;51.098;6.414;2023-06-10T14:08:03;35.40;51.30
3051;DHT22;1535;51.098;6.414;2023-06-10T14:10:30;35.30;52.20
3051;DHT22;1535;51.098;6.414;2023-06-10T14:13:00;35.10;51.80
3051;DHT22;1535;51.098;6.414;2023-06-10T14:15:26;34.90;51.60
3051;DHT22;1535;51.098;6.414;2023-06-10T14:17:53;34.60;52.20
3051;DHT22;1535;51.098;6.414;2023-06-10T14:20:20;35.10;53.00
3051;DHT22;1535;51.098;6.414;2023-06-10T14:22:47;35.30;51.50
3051;DHT22;1535;51.098;6.414;2023-06-10T14:25:13;35.10;51.70
3051;DHT22;1535;51.098;6.414;2023-06-10T14:27:41;35.30;52.80
3051;DHT22;1535;51.098;6.414;2023-06-10T14:30:10;35.30;52.20
3051;DHT22;1535;51.098;6.414;2023-06-10T14:32:37;35.00;53.50
3051;DHT22;1535;51.098;6.414;2023-06-10T14:35:04;35.00;52.90
3051;DHT22;1535;51.098;6.414;2023-06-10T14:37:31;34.50;53.60
3051;DHT22;1535;51.098;6.414;2023-06-10T14:39:58;35.00;53.50
3051;DHT22;1535;51.098;6.414;2023-06-10T14:42:25;35.80;51.90
3051;DHT22;1535;51.098;6.414;2023-06-10T14:45:07;36.80;50.60
3051;DHT22;1535;51.098;6.414;2023-06-10T14:47:35;37.70;50.70
3051;DHT22;1535;51.098;6.414;2023-06-10T14:50:03;38.80;49.60
3051;DHT22;1535;51.098;6.414;2023-06-10T14:52:30;39.60;46.40
3051;DHT22;1535;51.098;6.414;2023-06-10T14:54:59;39.50;45.80
3051;DHT22;1535;51.098;6.414;2023-06-10T14:57:26;39.40;48.10
3051;DHT22;1535;51.098;6.414;2023-06-10T14:59:53;38.50;48.40
3051;DHT22;1535;51.098;6.414;2023-06-10T15:02:23;38.30;49.20
3051;DHT22;1535;51.098;6.414;2023-06-10T15:04:52;38.40;47.90
3051;DHT22;1535;51.098;6.414;2023-06-10T15:07:19;38.20;47.70
3051;DHT22;1535;51.098;6.414;2023-06-10T15:09:46;38.10;47.00
3051;DHT22;1535;51.098;6.414;2023-06-10T15:12:14;38.00;48.30
3051;DHT22;1535;51.098;6.414;2023-06-10T15:14:40;39.20;47.50
3051;DHT22;1535;51.098;6.414;2023-06-10T15:17:07;39.10;47.90
3051;DHT22;1535;51.098;6.414;2023-06-10T15:19:34;38.80;47.00
3051;DHT22;1535;51.098;6.414;2023-06-10T15:22:02;38.70;47.50
3051;DHT22;1535;51.098;6.414;2023-06-10T15:24:29;39.10;49.20
3051;DHT22;1535;51.098;6.414;2023-06-10T15:26:56;39.60;48.80
3051;DHT22;1535;51.098;6.414;2023-06-10T15:29:23;39.40;48.20
3051;DHT22;1535;51.098;6.414;2023-06-10T15:31:50;39.60;48.60
3051;DHT22;1535;51.098;6.414;2023-06-10T15:34:17;39.50;49.10
3051;DHT22;1535;51.098;6.414;2023-06-10T15:36:44;39.50;49.30
3051;DHT22;1535;51.098;6.414;2023-06-10T15:39:13;39.70;49.20
3051;DHT22;1535;51.098;6.414;2023-06-10T15:41:40;39.30;47.30
3051;DHT22;1535;51.098;6.414;2023-06-10T15:44:07;39.40;47.40
3051;DHT22;1535;51.098;6.414;2023-06-10T15:46:34;38.70;48.20
3051;DHT22;1535;51.098;6.414;2023-06-10T15:49:01;38.80;47.70
3051;DHT22;1535;51.098;6.414;2023-06-10T15:51:28;37.70;46.80
3051;DHT22;1535;51.098;6.414;2023-06-10T15:53:55;38.00;48.00
3051;DHT22;1535;51.098;6.414;2023-06-10T15:56:24;37.90;47.50
3051;DHT22;1535;51.098;6.414;2023-06-10T15:58:51;37.40;47.70
3051;DHT22;1535;51.098;6.414;2023-06-10T16:01:18;37.50;48.20
3051;DHT22;1535;51.098;6.414;2023-06-10T16:03:45;37.90;47.80
3051;DHT22;1535;51.098;6.414;2023-06-10T16:06:12;38.00;47.00
3051;DHT22;1535;51.098;6.414;2023-06-10T16:08:41;38.20;47.10
3051;DHT22;1535;51.098;6.414;2023-06-10T16:11:08;38.20;46.90